Goliah — WDD5908 — position and weather

sailwx.info

Track history (hours):
 
Tides and Currents Weather Stations Pressure Air Temp Water Temp Dewpoint Dewpoint Depression Visibility Wind Speed Wind Dir Waves Ship Positions

Goliah

Owner: Crowley Marine Services, Inc., Seattle, WA. More information available from US FCC via Universal Licensing System and Coast Guard Vessel Documentation Center.

Last reported at 2014-Oct-02 10:33 UTC. Time now 2014-Oct-02 10:37 UTC.
Position N 47°24' W 122°23'.

Length 33 m; draft 4.8 m.

Type: Tug. MMSI: 366898250.

Date/timePositionNaut miles runAvg speedWind from/ knotsBaromVisibWave heightAir tempDewpointWater temp
2014-Oct-02 10:33N 47°24' W 122°23'7 7.3
2014-Oct-02 09:33N 47°31' W 122°25'2 7.0
2014-Oct-02 09:17N 47°33' W 122°25'4 4.8
2014-Oct-02 08:33N 47°35' W 122°21'0 1.8
2014-Oct-02 08:33N 47°35' W 122°21'0 0.0
2014-Oct-02 07:33N 47°35' W 122°21'0 0.0
2014-Oct-02 07:33N 47°35' W 122°21'0 0.0
2014-Oct-02 06:33N 47°35' W 122°21'0 0.0
2014-Oct-02 06:32N 47°35' W 122°21'0 0.0
2014-Oct-02 06:02N 47°35' W 122°21'0 0.6
2014-Oct-02 05:33N 47°36' W 122°21'5 4.6
2014-Oct-02 04:33N 47°32' W 122°25'010.9
2014-Oct-02 04:32N 47°32' W 122°25'1110.9
2014-Oct-02 03:33N 47°22' W 122°23'5 5.4
2014-Oct-02 02:33N 47°16' W 122°24'0 0.4
2014-Oct-02 01:33N 47°17' W 122°25'0 0.2
2014-Oct-02 00:33N 47°16' W 122°24'0 0.0
2014-Oct-01 23:33N 47°16' W 122°24'0 0.0
2014-Oct-01 22:33N 47°16' W 122°24'0 0.0
2014-Oct-01 21:33N 47°16' W 122°24'0 0.0
2014-Oct-01 20:33N 47°16' W 122°24'0 0.0
2014-Oct-01 19:33N 47°16' W 122°24'0 0.0
2014-Oct-01 18:33N 47°16' W 122°24'0 0.0
2014-Oct-01 17:33N 47°16' W 122°24'0 0.0
2014-Oct-01 16:33N 47°16' W 122°24'0 0.0
2014-Oct-01 15:33N 47°16' W 122°24'2 1.5
2014-Oct-01 14:33N 47°17' W 122°26'2 1.7
2014-Oct-01 13:33N 47°16' W 122°24'0 0.0
2014-Oct-01 12:33N 47°16' W 122°24'1 1.1
2014-Oct-01 11:33N 47°16' W 122°23'2 1.6
2014-Oct-01 10:33N 47°17' W 122°25'3 3.3
2014-Oct-01 09:33N 47°20' W 122°26'6 5.7
2014-Oct-01 08:33N 47°25' W 122°24'7 6.6
2014-Oct-01 07:33N 47°31' W 122°27'5 5.2
2014-Oct-01 06:30N 47°36' W 122°22'0 0.4
2014-Oct-01 05:33N 47°35' W 122°21'0 0.0
2014-Oct-01 04:33N 47°35' W 122°21'0 0.1
2014-Oct-01 03:21N 47°35' W 122°21'0 0.0
2014-Oct-01 01:32N 47°35' W 122°21'0 0.0
2014-Oct-01 00:33N 47°35' W 122°21'0 0.0
2014-Sep-30 23:31N 47°35' W 122°21'0 0.0
2014-Sep-30 22:30N 47°35' W 122°21'0 0.0
2014-Sep-30 21:45N 47°35' W 122°21'0 0.0
2014-Sep-30 21:33N 47°35' W 122°21'0 0.1
2014-Sep-30 21:30N 47°35' W 122°21'0 0.0
2014-Sep-30 20:30N 47°35' W 122°21'0 0.0
2014-Sep-30 19:27N 47°35' W 122°21'0 0.0
2014-Sep-30 18:33N 47°35' W 122°21'0 0.0
2014-Sep-30 17:33N 47°35' W 122°21'0 0.0
2014-Sep-30 16:32N 47°35' W 122°21'0 0.0
2014-Sep-30 15:33N 47°35' W 122°21'0 0.0
2014-Sep-30 14:33N 47°35' W 122°21'0 0.0
2014-Sep-30 13:33N 47°35' W 122°21'0 0.4
2014-Sep-30 12:34N 47°35' W 122°21'1 1.0
2014-Sep-30 11:33N 47°36' W 122°22'1 0.6
2014-Sep-30 10:33N 47°35' W 122°21'0 0.0
2014-Sep-30 09:33N 47°35' W 122°21'0 0.0
2014-Sep-30 08:33N 47°35' W 122°21'0 0.0
2014-Sep-30 07:33N 47°35' W 122°21'0 0.0
2014-Sep-30 06:33N 47°35' W 122°21'0 0.0
2014-Sep-30 05:33N 47°35' W 122°21'0 0.0
2014-Sep-30 04:33N 47°35' W 122°21'0 0.0
2014-Sep-30 03:33N 47°35' W 122°21'0 0.0
2014-Sep-30 02:33N 47°35' W 122°21'1 0.6
2014-Sep-30 01:33N 47°35' W 122°21'0 0.0
2014-Sep-30 00:33N 47°35' W 122°21'1 0.6
2014-Sep-29 23:33N 47°35' W 122°21'0 0.0
2014-Sep-29 22:33N 47°35' W 122°21'0 0.0
2014-Sep-29 21:33N 47°35' W 122°21'8 7.8
2014-Sep-29 20:33N 47°42' W 122°28'9 9.1
2014-Sep-29 19:33N 47°51' W 122°29'8 8.1
2014-Sep-29 18:33N 47°58' W 122°35'26 8.6
2014-Sep-29 15:31N 48°23' W 122°46'8 8.2
2014-Sep-29 14:33N 48°31' W 122°45'7 7.3
2014-Sep-29 13:33N 48°38' W 122°44'8 8.1
2014-Sep-29 12:32N 48°46' W 122°44'2 0.9
2014-Sep-29 10:24N 48°48' W 122°43'0 0.1
2014-Sep-29 09:33N 48°48' W 122°43'0 0.0
2014-Sep-29 08:05N 48°48' W 122°43'0 0.0
2014-Sep-29 07:19N 48°48' W 122°43'0 0.0
2014-Sep-29 06:28N 48°48' W 122°43'0 0.0
2014-Sep-29 05:31N 48°48' W 122°43'0 0.0
2014-Sep-29 04:19N 48°48' W 122°43'0 0.0
2014-Sep-29 03:33N 48°48' W 122°43'0 0.0
2014-Sep-29 02:24N 48°48' W 122°43'2 1.2
2014-Sep-29 00:33N 48°50' W 122°46'4 4.5
2014-Sep-28 23:33N 48°45' W 122°45'7 7.5
2014-Sep-28 22:33N 48°39' W 122°39'8 7.7
2014-Sep-28 21:33N 48°31' W 122°36'1 0.8
2014-Sep-28 20:33N 48°31' W 122°37'2 1.6
2014-Sep-28 19:33N 48°31' W 122°35'2 1.6
2014-Sep-28 18:33N 48°31' W 122°37'0 0.0
2014-Sep-28 17:33N 48°31' W 122°37'0 0.0
2014-Sep-28 16:33N 48°31' W 122°37'0 0.0
2014-Sep-28 15:33N 48°31' W 122°37'0 0.0
2014-Sep-28 14:33N 48°31' W 122°37'0 0.0
2014-Sep-28 13:33N 48°31' W 122°37'0 0.0
2014-Sep-28 12:33N 48°31' W 122°37'0 0.0
2014-Sep-28 11:33N 48°31' W 122°37'0 0.0
2014-Sep-28 10:33N 48°31' W 122°37'0 0.0
2014-Sep-28 09:33N 48°31' W 122°37'0 0.0
2014-Sep-28 08:33N 48°31' W 122°37'0 0.0
2014-Sep-28 07:33N 48°31' W 122°37'2 2.4
2014-Sep-28 06:33N 48°33' W 122°34'4 4.3
2014-Sep-28 05:33N 48°37' W 122°33'6 6.3
2014-Sep-28 04:33N 48°33' W 122°40'9 9.1
2014-Sep-28 03:33N 48°25' W 122°48'1510.5
2014-Sep-28 02:05N 48°16' W 123°07'10 6.7
2014-Sep-28 00:33N 48°22' W 122°54'6 6.1
2014-Sep-27 23:33N 48°26' W 122°47'7 6.9
2014-Sep-27 22:33N 48°31' W 122°40'2 2.2
2014-Sep-27 21:33N 48°31' W 122°37'0 0.0
2014-Sep-27 20:33N 48°31' W 122°37'0 0.0
2014-Sep-27 19:33N 48°31' W 122°37'0 0.0
2014-Sep-27 18:33N 48°31' W 122°37'0 0.0
2014-Sep-27 17:33N 48°31' W 122°37'0 0.0
2014-Sep-27 16:33N 48°31' W 122°37'0 0.0
2014-Sep-27 15:33N 48°31' W 122°37'0 0.0
2014-Sep-27 14:33N 48°31' W 122°37'0 0.0
2014-Sep-27 13:33N 48°31' W 122°37'0 0.0
2014-Sep-27 12:33N 48°31' W 122°37'0 0.0
2014-Sep-27 11:33N 48°31' W 122°37'2 2.2
2014-Sep-27 10:33N 48°33' W 122°34'10 9.9
2014-Sep-27 09:33N 48°41' W 122°42'10 4.9
2014-Sep-27 07:27N 48°51' W 122°45'8 9.4
2014-Sep-27 06:33N 48°43' W 122°44'8 8.0
2014-Sep-27 05:33N 48°35' W 122°45'8 7.7
2014-Sep-27 04:33N 48°27' W 122°45'1110.4
2014-Sep-27 03:30N 48°20' W 122°57'7 6.2
2014-Sep-27 02:20N 48°16' W 123°06'27 8.4
2014-Sep-26 23:05N 47°58' W 122°34'2 8.6
2014-Sep-26 22:50N 47°57' W 122°32'3 9.9
2014-Sep-26 22:33N 47°55' W 122°29'210.5
2014-Sep-26 22:20N 47°53' W 122°28'810.8
2014-Sep-26 21:33N 47°45' W 122°26'110.5
2014-Sep-26 21:29N 47°44' W 122°26'9 9.4
2014-Sep-26 20:33N 47°36' W 122°21'0151.9
2014-Sep-26 20:33N 47°36' W 122°21'0 0.3
2014-Sep-26 19:33N 47°35' W 122°21'0 0.0
2014-Sep-26 19:33N 47°35' W 122°21'0 0.0
2014-Sep-26 18:33N 47°35' W 122°21'0 0.0
2014-Sep-26 18:33N 47°35' W 122°21'0 0.0
2014-Sep-26 17:33N 47°35' W 122°21'0 0.0
2014-Sep-26 17:33N 47°35' W 122°21'0 0.0
2014-Sep-26 16:33N 47°35' W 122°21'0 0.0
2014-Sep-26 16:32N 47°35' W 122°21'0 0.0
2014-Sep-26 15:33N 47°35' W 122°21'0 0.3
2014-Sep-26 15:32N 47°35' W 122°21'0 0.0
2014-Sep-26 14:33N 47°35' W 122°21'0 0.0
2014-Sep-26 14:32N 47°35' W 122°21'0 0.2
2014-Sep-26 13:33N 47°35' W 122°21'0 1.5
2014-Sep-26 13:31N 47°35' W 122°21'3 3.6
2014-Sep-26 12:33N 47°34' W 122°25'011.4
2014-Sep-26 12:31N 47°34' W 122°25'1111.8
2014-Sep-26 11:34N 47°23' W 122°21'7 6.7
2014-Sep-26 10:33N 47°16' W 122°24'1 1.0
2014-Sep-26 09:33N 47°16' W 122°23'3 2.5
2014-Sep-26 08:33N 47°18' W 122°26'0 0.0
2014-Sep-26 07:28N 47°18' W 122°26'0 0.0
2014-Sep-26 06:33N 47°18' W 122°26'0 0.0
2014-Sep-26 05:33N 47°18' W 122°26'0 0.0
2014-Sep-26 04:22N 47°18' W 122°26'0 0.0
2014-Sep-26 03:33N 47°18' W 122°26'0 0.0
2014-Sep-26 02:33N 47°18' W 122°26'0 0.0
2014-Sep-26 01:33N 47°18' W 122°26'0 0.0
2014-Sep-26 00:33N 47°18' W 122°26'0 0.0
2014-Sep-25 23:33N 47°18' W 122°26'4 4.1
2014-Sep-25 22:33N 47°22' W 122°24'8 8.2
2014-Sep-25 21:33N 47°30' W 122°24'3 9.1
2014-Sep-25 21:14N 47°33' W 122°25'4 5.5
2014-Sep-25 20:33N 47°35' W 122°21'0 0.2
2014-Sep-25 20:24N 47°35' W 122°21'0 0.0
2014-Sep-25 19:33N 47°35' W 122°21'0 0.0
2014-Sep-25 19:29N 47°35' W 122°21'0 0.0
2014-Sep-25 18:33N 47°35' W 122°21'0 0.1
2014-Sep-25 18:29N 47°35' W 122°21'0 0.0
2014-Sep-25 17:33N 47°35' W 122°21'0 0.1
2014-Sep-25 17:29N 47°35' W 122°21'0 0.0
2014-Sep-25 16:34N 47°35' W 122°21'0 0.0
2014-Sep-25 16:33N 47°35' W 122°21'0 0.0
2014-Sep-25 15:33N 47°35' W 122°21'0 0.0
2014-Sep-25 15:33N 47°35' W 122°21'0 0.0
2014-Sep-25 14:33N 47°35' W 122°21'0 0.0
2014-Sep-25 14:33N 47°35' W 122°21'0 0.4
2014-Sep-25 13:33N 47°35' W 122°21'0 0.0
2014-Sep-25 13:33N 47°35' W 122°21'0 0.1
2014-Sep-25 12:34N 47°35' W 122°21'0 0.7
2014-Sep-25 12:33N 47°35' W 122°21'7 7.3
2014-Sep-25 11:33N 47°28' W 122°24'1110.5
2014-Sep-25 10:33N 47°18' W 122°27'1 0.8
2014-Sep-25 09:33N 47°17' W 122°26'2 2.0
2014-Sep-25 08:33N 47°15' W 122°26'0 0.0
2014-Sep-25 07:33N 47°15' W 122°26'0 0.0
2014-Sep-25 06:33N 47°15' W 122°26'0 0.0
2014-Sep-25 05:33N 47°15' W 122°26'0 0.0
2014-Sep-25 04:33N 47°15' W 122°26'0 0.0
2014-Sep-25 03:33N 47°15' W 122°26'0 0.0
2014-Sep-25 02:33N 47°15' W 122°26'0 0.0
2014-Sep-25 01:32N 47°15' W 122°26'0 0.0
2014-Sep-25 00:27N 47°15' W 122°26'0 0.0
2014-Sep-24 23:33N 47°15' W 122°26'0 0.1
2014-Sep-24 22:33N 47°15' W 122°26'2 1.5
2014-Sep-24 21:33N 47°16' W 122°24'2 2.3
2014-Sep-24 20:33N 47°18' W 122°27'6 6.0
2014-Sep-24 19:33N 47°23' W 122°22'7 9.5
2014-Sep-24 18:48N 47°30' W 122°26'310.4
2014-Sep-24 18:33N 47°32' W 122°27'0 0.0
2014-Sep-24 18:33N 47°32' W 122°27'1010.2
2014-Sep-24 17:33N 47°42' W 122°28'110.0
2014-Sep-24 17:28N 47°43' W 122°28'9 9.9
2014-Sep-24 16:33N 47°52' W 122°29'0 9.9
2014-Sep-24 16:33N 47°52' W 122°29'9 8.9
2014-Sep-24 15:32N 47°60' W 122°37'22 9.1
2014-Sep-24 13:07N 48°21' W 122°46'610.4
2014-Sep-24 12:33N 48°27' W 122°44'7 7.3
2014-Sep-24 11:33N 48°31' W 122°35'0 0.0
2014-Sep-24 10:33N 48°31' W 122°35'3 3.0
2014-Sep-24 09:34N 48°34' W 122°35'4 3.5
2014-Sep-24 08:33N 48°31' W 122°39'9 9.5
2014-Sep-24 07:33N 48°24' W 122°48'2210.7
2014-Sep-24 05:31N 48°12' W 123°15'7 7.5
2014-Sep-24 04:33N 48°08' W 123°24'2 2.0
2014-Sep-24 03:33N 48°08' W 123°27'0 0.0
2014-Sep-24 02:33N 48°08' W 123°27'0 0.0
2014-Sep-24 02:09N 48°08' W 123°27'0 0.0
2014-Sep-24 01:33N 48°08' W 123°27'0 0.1
2014-Sep-24 01:29N 48°08' W 123°27'1 1.1
2014-Sep-24 00:33N 48°08' W 123°26'4 4.1
2014-Sep-23 23:33N 48°09' W 123°20'7 6.6
2014-Sep-23 22:33N 48°13' W 123°13'1310.6
2014-Sep-23 21:17N 48°21' W 122°56'810.0
2014-Sep-23 20:32N 48°26' W 122°47'9 8.9
2014-Sep-23 19:33N 48°31' W 122°37'0 0.2
2014-Sep-23 18:33N 48°31' W 122°37'0 0.0
2014-Sep-23 17:33N 48°31' W 122°37'0 0.3
2014-Sep-23 16:33N 48°31' W 122°36'2 1.6
2014-Sep-23 15:33N 48°31' W 122°34'2 1.8
2014-Sep-23 14:33N 48°31' W 122°37'0 0.0
2014-Sep-23 13:33N 48°31' W 122°37'0 0.0
2014-Sep-23 12:33N 48°31' W 122°37'0 0.0
2014-Sep-23 11:33N 48°31' W 122°37'0 0.0
2014-Sep-23 10:33N 48°31' W 122°37'0 0.0
2014-Sep-23 09:33N 48°31' W 122°37'2 1.7
2014-Sep-23 08:33N 48°31' W 122°35'0 0.1
2014-Sep-23 07:34N 48°31' W 122°35'3 3.4
2014-Sep-23 06:34N 48°31' W 122°40'2 1.9
2014-Sep-23 05:33N 48°31' W 122°37'1 1.1
2014-Sep-23 04:33N 48°31' W 122°39'7 5.8
2014-Sep-23 03:19N 48°25' W 122°44'6 8.2
2014-Sep-23 02:32N 48°19' W 122°46'21 8.7
2014-Sep-23 00:08N 47°59' W 122°35'5 9.1
2014-Sep-22 23:33N 47°56' W 122°29'9 9.2
2014-Sep-22 22:33N 47°47' W 122°26'9 8.8
2014-Sep-22 21:33N 47°38' W 122°25'4 3.9
2014-Sep-22 20:33N 47°35' W 122°21'0 0.0
2014-Sep-22 19:33N 47°35' W 122°21'0 0.0
2014-Sep-22 18:33N 47°35' W 122°21'0 0.0
2014-Sep-22 17:33N 47°35' W 122°21'0 0.0
2014-Sep-22 16:33N 47°35' W 122°21'0 0.0
2014-Sep-22 15:33N 47°35' W 122°21'0 0.0
2014-Sep-22 14:33N 47°35' W 122°21'0 0.0
2014-Sep-22 13:32N 47°35' W 122°21'0 0.0
2014-Sep-22 12:33N 47°35' W 122°21'0 0.0
2014-Sep-22 11:33N 47°35' W 122°21'0 0.0
2014-Sep-22 10:33N 47°35' W 122°21'  
Track history (hours):
 
Tides and Currents Weather Stations Pressure Air Temp Water Temp Dewpoint Dewpoint Depression Visibility Wind Speed Wind Dir Waves Ship Positions

Goliah

Owner: Crowley Marine Services, Inc., Seattle, WA. More information available from US FCC via Universal Licensing System and Coast Guard Vessel Documentation Center.

Last reported at 2014-Oct-02 10:33 UTC. Time now 2014-Oct-02 10:37 UTC.
Position N 47°24' W 122°23'.

Length 33 m; draft 4.8 m.

Type: Tug. MMSI: 366898250.

Date/timePositionNaut miles runAvg speedWind from/ knotsBaromVisibWave heightAir tempDewpointWater temp
2014-Oct-02 10:33N 47°24' W 122°23'7 7.3
2014-Oct-02 09:33N 47°31' W 122°25'2 7.0
2014-Oct-02 09:17N 47°33' W 122°25'4 4.8
2014-Oct-02 08:33N 47°35' W 122°21'0 1.8
2014-Oct-02 08:33N 47°35' W 122°21'0 0.0
2014-Oct-02 07:33N 47°35' W 122°21'0 0.0
2014-Oct-02 07:33N 47°35' W 122°21'0 0.0
2014-Oct-02 06:33N 47°35' W 122°21'0 0.0
2014-Oct-02 06:32N 47°35' W 122°21'0 0.0
2014-Oct-02 06:02N 47°35' W 122°21'0 0.6
2014-Oct-02 05:33N 47°36' W 122°21'5 4.6
2014-Oct-02 04:33N 47°32' W 122°25'010.9
2014-Oct-02 04:32N 47°32' W 122°25'1110.9
2014-Oct-02 03:33N 47°22' W 122°23'5 5.4
2014-Oct-02 02:33N 47°16' W 122°24'0 0.4
2014-Oct-02 01:33N 47°17' W 122°25'0 0.2
2014-Oct-02 00:33N 47°16' W 122°24'0 0.0
2014-Oct-01 23:33N 47°16' W 122°24'0 0.0
2014-Oct-01 22:33N 47°16' W 122°24'0 0.0
2014-Oct-01 21:33N 47°16' W 122°24'0 0.0
2014-Oct-01 20:33N 47°16' W 122°24'0 0.0
2014-Oct-01 19:33N 47°16' W 122°24'0 0.0
2014-Oct-01 18:33N 47°16' W 122°24'0 0.0
2014-Oct-01 17:33N 47°16' W 122°24'0 0.0
2014-Oct-01 16:33N 47°16' W 122°24'0 0.0
2014-Oct-01 15:33N 47°16' W 122°24'2 1.5
2014-Oct-01 14:33N 47°17' W 122°26'2 1.7
2014-Oct-01 13:33N 47°16' W 122°24'0 0.0
2014-Oct-01 12:33N 47°16' W 122°24'1 1.1
2014-Oct-01 11:33N 47°16' W 122°23'2 1.6
2014-Oct-01 10:33N 47°17' W 122°25'3 3.3
2014-Oct-01 09:33N 47°20' W 122°26'6 5.7
2014-Oct-01 08:33N 47°25' W 122°24'7 6.6
2014-Oct-01 07:33N 47°31' W 122°27'5 5.2
2014-Oct-01 06:30N 47°36' W 122°22'0 0.4
2014-Oct-01 05:33N 47°35' W 122°21'0 0.0
2014-Oct-01 04:33N 47°35' W 122°21'0 0.1
2014-Oct-01 03:21N 47°35' W 122°21'0 0.0
2014-Oct-01 01:32N 47°35' W 122°21'0 0.0
2014-Oct-01 00:33N 47°35' W 122°21'0 0.0
2014-Sep-30 23:31N 47°35' W 122°21'0 0.0
2014-Sep-30 22:30N 47°35' W 122°21'0 0.0
2014-Sep-30 21:45N 47°35' W 122°21'0 0.0
2014-Sep-30 21:33N 47°35' W 122°21'0 0.1
2014-Sep-30 21:30N 47°35' W 122°21'0 0.0
2014-Sep-30 20:30N 47°35' W 122°21'0 0.0
2014-Sep-30 19:27N 47°35' W 122°21'0 0.0
2014-Sep-30 18:33N 47°35' W 122°21'0 0.0
2014-Sep-30 17:33N 47°35' W 122°21'0 0.0
2014-Sep-30 16:32N 47°35' W 122°21'0 0.0
2014-Sep-30 15:33N 47°35' W 122°21'0 0.0
2014-Sep-30 14:33N 47°35' W 122°21'0 0.0
2014-Sep-30 13:33N 47°35' W 122°21'0 0.4
2014-Sep-30 12:34N 47°35' W 122°21'1 1.0
2014-Sep-30 11:33N 47°36' W 122°22'1 0.6
2014-Sep-30 10:33N 47°35' W 122°21'0 0.0
2014-Sep-30 09:33N 47°35' W 122°21'0 0.0
2014-Sep-30 08:33N 47°35' W 122°21'0 0.0
2014-Sep-30 07:33N 47°35' W 122°21'0 0.0
2014-Sep-30 06:33N 47°35' W 122°21'0 0.0
2014-Sep-30 05:33N 47°35' W 122°21'0 0.0
2014-Sep-30 04:33N 47°35' W 122°21'0 0.0
2014-Sep-30 03:33N 47°35' W 122°21'0 0.0
2014-Sep-30 02:33N 47°35' W 122°21'1 0.6
2014-Sep-30 01:33N 47°35' W 122°21'0 0.0
2014-Sep-30 00:33N 47°35' W 122°21'1 0.6
2014-Sep-29 23:33N 47°35' W 122°21'0 0.0
2014-Sep-29 22:33N 47°35' W 122°21'0 0.0
2014-Sep-29 21:33N 47°35' W 122°21'8 7.8
2014-Sep-29 20:33N 47°42' W 122°28'9 9.1
2014-Sep-29 19:33N 47°51' W 122°29'8 8.1
2014-Sep-29 18:33N 47°58' W 122°35'26 8.6
2014-Sep-29 15:31N 48°23' W 122°46'8 8.2
2014-Sep-29 14:33N 48°31' W 122°45'7 7.3
2014-Sep-29 13:33N 48°38' W 122°44'8 8.1
2014-Sep-29 12:32N 48°46' W 122°44'2 0.9
2014-Sep-29 10:24N 48°48' W 122°43'0 0.1
2014-Sep-29 09:33N 48°48' W 122°43'0 0.0
2014-Sep-29 08:05N 48°48' W 122°43'0 0.0
2014-Sep-29 07:19N 48°48' W 122°43'0 0.0
2014-Sep-29 06:28N 48°48' W 122°43'0 0.0
2014-Sep-29 05:31N 48°48' W 122°43'0 0.0
2014-Sep-29 04:19N 48°48' W 122°43'0 0.0
2014-Sep-29 03:33N 48°48' W 122°43'0 0.0
2014-Sep-29 02:24N 48°48' W 122°43'2 1.2
2014-Sep-29 00:33N 48°50' W 122°46'4 4.5
2014-Sep-28 23:33N 48°45' W 122°45'7 7.5
2014-Sep-28 22:33N 48°39' W 122°39'8 7.7
2014-Sep-28 21:33N 48°31' W 122°36'1 0.8
2014-Sep-28 20:33N 48°31' W 122°37'2 1.6
2014-Sep-28 19:33N 48°31' W 122°35'2 1.6
2014-Sep-28 18:33N 48°31' W 122°37'0 0.0
2014-Sep-28 17:33N 48°31' W 122°37'0 0.0
2014-Sep-28 16:33N 48°31' W 122°37'0 0.0
2014-Sep-28 15:33N 48°31' W 122°37'0 0.0
2014-Sep-28 14:33N 48°31' W 122°37'0 0.0
2014-Sep-28 13:33N 48°31' W 122°37'0 0.0
2014-Sep-28 12:33N 48°31' W 122°37'0 0.0
2014-Sep-28 11:33N 48°31' W 122°37'0 0.0
2014-Sep-28 10:33N 48°31' W 122°37'0 0.0
2014-Sep-28 09:33N 48°31' W 122°37'0 0.0
2014-Sep-28 08:33N 48°31' W 122°37'0 0.0
2014-Sep-28 07:33N 48°31' W 122°37'2 2.4
2014-Sep-28 06:33N 48°33' W 122°34'4 4.3
2014-Sep-28 05:33N 48°37' W 122°33'6 6.3
2014-Sep-28 04:33N 48°33' W 122°40'9 9.1
2014-Sep-28 03:33N 48°25' W 122°48'1510.5
2014-Sep-28 02:05N 48°16' W 123°07'10 6.7
2014-Sep-28 00:33N 48°22' W 122°54'6 6.1
2014-Sep-27 23:33N 48°26' W 122°47'7 6.9
2014-Sep-27 22:33N 48°31' W 122°40'2 2.2
2014-Sep-27 21:33N 48°31' W 122°37'0 0.0
2014-Sep-27 20:33N 48°31' W 122°37'0 0.0
2014-Sep-27 19:33N 48°31' W 122°37'0 0.0
2014-Sep-27 18:33N 48°31' W 122°37'0 0.0
2014-Sep-27 17:33N 48°31' W 122°37'0 0.0
2014-Sep-27 16:33N 48°31' W 122°37'0 0.0
2014-Sep-27 15:33N 48°31' W 122°37'0 0.0
2014-Sep-27 14:33N 48°31' W 122°37'0 0.0
2014-Sep-27 13:33N 48°31' W 122°37'0 0.0
2014-Sep-27 12:33N 48°31' W 122°37'0 0.0
2014-Sep-27 11:33N 48°31' W 122°37'2 2.2
2014-Sep-27 10:33N 48°33' W 122°34'10 9.9
2014-Sep-27 09:33N 48°41' W 122°42'10 4.9
2014-Sep-27 07:27N 48°51' W 122°45'8 9.4
2014-Sep-27 06:33N 48°43' W 122°44'8 8.0
2014-Sep-27 05:33N 48°35' W 122°45'8 7.7
2014-Sep-27 04:33N 48°27' W 122°45'1110.4
2014-Sep-27 03:30N 48°20' W 122°57'7 6.2
2014-Sep-27 02:20N 48°16' W 123°06'27 8.4
2014-Sep-26 23:05N 47°58' W 122°34'2 8.6
2014-Sep-26 22:50N 47°57' W 122°32'3 9.9
2014-Sep-26 22:33N 47°55' W 122°29'210.5
2014-Sep-26 22:20N 47°53' W 122°28'810.8
2014-Sep-26 21:33N 47°45' W 122°26'110.5
2014-Sep-26 21:29N 47°44' W 122°26'9 9.4
2014-Sep-26 20:33N 47°36' W 122°21'0151.9
2014-Sep-26 20:33N 47°36' W 122°21'0 0.3
2014-Sep-26 19:33N 47°35' W 122°21'0 0.0
2014-Sep-26 19:33N 47°35' W 122°21'0 0.0
2014-Sep-26 18:33N 47°35' W 122°21'0 0.0
2014-Sep-26 18:33N 47°35' W 122°21'0 0.0
2014-Sep-26 17:33N 47°35' W 122°21'0 0.0
2014-Sep-26 17:33N 47°35' W 122°21'0 0.0
2014-Sep-26 16:33N 47°35' W 122°21'0 0.0
2014-Sep-26 16:32N 47°35' W 122°21'0 0.0
2014-Sep-26 15:33N 47°35' W 122°21'0 0.3
2014-Sep-26 15:32N 47°35' W 122°21'0 0.0
2014-Sep-26 14:33N 47°35' W 122°21'0 0.0
2014-Sep-26 14:32N 47°35' W 122°21'0 0.2
2014-Sep-26 13:33N 47°35' W 122°21'0 1.5
2014-Sep-26 13:31N 47°35' W 122°21'3 3.6
2014-Sep-26 12:33N 47°34' W 122°25'011.4
2014-Sep-26 12:31N 47°34' W 122°25'1111.8
2014-Sep-26 11:34N 47°23' W 122°21'7 6.7
2014-Sep-26 10:33N 47°16' W 122°24'1 1.0
2014-Sep-26 09:33N 47°16' W 122°23'3 2.5
2014-Sep-26 08:33N 47°18' W 122°26'0 0.0
2014-Sep-26 07:28N 47°18' W 122°26'0 0.0
2014-Sep-26 06:33N 47°18' W 122°26'0 0.0
2014-Sep-26 05:33N 47°18' W 122°26'0 0.0
2014-Sep-26 04:22N 47°18' W 122°26'0 0.0
2014-Sep-26 03:33N 47°18' W 122°26'0 0.0
2014-Sep-26 02:33N 47°18' W 122°26'0 0.0
2014-Sep-26 01:33N 47°18' W 122°26'0 0.0
2014-Sep-26 00:33N 47°18' W 122°26'0 0.0
2014-Sep-25 23:33N 47°18' W 122°26'4 4.1
2014-Sep-25 22:33N 47°22' W 122°24'8 8.2
2014-Sep-25 21:33N 47°30' W 122°24'3 9.1
2014-Sep-25 21:14N 47°33' W 122°25'4 5.5
2014-Sep-25 20:33N 47°35' W 122°21'0 0.2
2014-Sep-25 20:24N 47°35' W 122°21'0 0.0
2014-Sep-25 19:33N 47°35' W 122°21'0 0.0
2014-Sep-25 19:29N 47°35' W 122°21'0 0.0
2014-Sep-25 18:33N 47°35' W 122°21'0 0.1
2014-Sep-25 18:29N 47°35' W 122°21'0 0.0
2014-Sep-25 17:33N 47°35' W 122°21'0 0.1
2014-Sep-25 17:29N 47°35' W 122°21'0 0.0
2014-Sep-25 16:34N 47°35' W 122°21'0 0.0
2014-Sep-25 16:33N 47°35' W 122°21'0 0.0
2014-Sep-25 15:33N 47°35' W 122°21'0 0.0
2014-Sep-25 15:33N 47°35' W 122°21'0 0.0
2014-Sep-25 14:33N 47°35' W 122°21'0 0.0
2014-Sep-25 14:33N 47°35' W 122°21'0 0.4
2014-Sep-25 13:33N 47°35' W 122°21'0 0.0
2014-Sep-25 13:33N 47°35' W 122°21'0 0.1
2014-Sep-25 12:34N 47°35' W 122°21'0 0.7
2014-Sep-25 12:33N 47°35' W 122°21'7 7.3
2014-Sep-25 11:33N 47°28' W 122°24'1110.5
2014-Sep-25 10:33N 47°18' W 122°27'1 0.8
2014-Sep-25 09:33N 47°17' W 122°26'2 2.0
2014-Sep-25 08:33N 47°15' W 122°26'0 0.0
2014-Sep-25 07:33N 47°15' W 122°26'0 0.0
2014-Sep-25 06:33N 47°15' W 122°26'0 0.0
2014-Sep-25 05:33N 47°15' W 122°26'0 0.0
2014-Sep-25 04:33N 47°15' W 122°26'0 0.0
2014-Sep-25 03:33N 47°15' W 122°26'0 0.0
2014-Sep-25 02:33N 47°15' W 122°26'0 0.0
2014-Sep-25 01:32N 47°15' W 122°26'0 0.0
2014-Sep-25 00:27N 47°15' W 122°26'0 0.0
2014-Sep-24 23:33N 47°15' W 122°26'0 0.1
2014-Sep-24 22:33N 47°15' W 122°26'2 1.5
2014-Sep-24 21:33N 47°16' W 122°24'2 2.3
2014-Sep-24 20:33N 47°18' W 122°27'6 6.0
2014-Sep-24 19:33N 47°23' W 122°22'7 9.5
2014-Sep-24 18:48N 47°30' W 122°26'310.4
2014-Sep-24 18:33N 47°32' W 122°27'0 0.0
2014-Sep-24 18:33N 47°32' W 122°27'1010.2
2014-Sep-24 17:33N 47°42' W 122°28'110.0
2014-Sep-24 17:28N 47°43' W 122°28'9 9.9
2014-Sep-24 16:33N 47°52' W 122°29'0 9.9
2014-Sep-24 16:33N 47°52' W 122°29'9 8.9
2014-Sep-24 15:32N 47°60' W 122°37'22 9.1
2014-Sep-24 13:07N 48°21' W 122°46'610.4
2014-Sep-24 12:33N 48°27' W 122°44'7 7.3
2014-Sep-24 11:33N 48°31' W 122°35'0 0.0
2014-Sep-24 10:33N 48°31' W 122°35'3 3.0
2014-Sep-24 09:34N 48°34' W 122°35'4 3.5
2014-Sep-24 08:33N 48°31' W 122°39'9 9.5
2014-Sep-24 07:33N 48°24' W 122°48'2210.7
2014-Sep-24 05:31N 48°12' W 123°15'7 7.5
2014-Sep-24 04:33N 48°08' W 123°24'2 2.0
2014-Sep-24 03:33N 48°08' W 123°27'0 0.0
2014-Sep-24 02:33N 48°08' W 123°27'0 0.0
2014-Sep-24 02:09N 48°08' W 123°27'0 0.0
2014-Sep-24 01:33N 48°08' W 123°27'0 0.1
2014-Sep-24 01:29N 48°08' W 123°27'1 1.1
2014-Sep-24 00:33N 48°08' W 123°26'4 4.1
2014-Sep-23 23:33N 48°09' W 123°20'7 6.6
2014-Sep-23 22:33N 48°13' W 123°13'1310.6
2014-Sep-23 21:17N 48°21' W 122°56'810.0
2014-Sep-23 20:32N 48°26' W 122°47'9 8.9
2014-Sep-23 19:33N 48°31' W 122°37'0 0.2
2014-Sep-23 18:33N 48°31' W 122°37'0 0.0
2014-Sep-23 17:33N 48°31' W 122°37'0 0.3
2014-Sep-23 16:33N 48°31' W 122°36'2 1.6
2014-Sep-23 15:33N 48°31' W 122°34'2 1.8
2014-Sep-23 14:33N 48°31' W 122°37'0 0.0
2014-Sep-23 13:33N 48°31' W 122°37'0 0.0
2014-Sep-23 12:33N 48°31' W 122°37'0 0.0
2014-Sep-23 11:33N 48°31' W 122°37'0 0.0
2014-Sep-23 10:33N 48°31' W 122°37'0 0.0
2014-Sep-23 09:33N 48°31' W 122°37'2 1.7
2014-Sep-23 08:33N 48°31' W 122°35'0 0.1
2014-Sep-23 07:34N 48°31' W 122°35'3 3.4
2014-Sep-23 06:34N 48°31' W 122°40'2 1.9
2014-Sep-23 05:33N 48°31' W 122°37'1 1.1
2014-Sep-23 04:33N 48°31' W 122°39'7 5.8
2014-Sep-23 03:19N 48°25' W 122°44'6 8.2
2014-Sep-23 02:32N 48°19' W 122°46'21 8.7
2014-Sep-23 00:08N 47°59' W 122°35'5 9.1
2014-Sep-22 23:33N 47°56' W 122°29'9 9.2
2014-Sep-22 22:33N 47°47' W 122°26'9 8.8
2014-Sep-22 21:33N 47°38' W 122°25'4 3.9
2014-Sep-22 20:33N 47°35' W 122°21'0 0.0
2014-Sep-22 19:33N 47°35' W 122°21'0 0.0
2014-Sep-22 18:33N 47°35' W 122°21'0 0.0
2014-Sep-22 17:33N 47°35' W 122°21'0 0.0
2014-Sep-22 16:33N 47°35' W 122°21'0 0.0
2014-Sep-22 15:33N 47°35' W 122°21'0 0.0
2014-Sep-22 14:33N 47°35' W 122°21'0 0.0
2014-Sep-22 13:32N 47°35' W 122°21'0 0.0
2014-Sep-22 12:33N 47°35' W 122°21'0 0.0
2014-Sep-22 11:33N 47°35' W 122°21'0 0.0
2014-Sep-22 10:33N 47°35' W 122°21'  

Dump ship's entire track history